Terminal Aerodrome Forecast
Issued by NWS Charleston, WV

Current Version | Previous Version | Graphics & Text | Print | Product List | Glossary On
Versions: 1 2 3 4 5 6 7 8 9 10 11 12 13 14 15 16 17 18 19 20 21 22 23 24 25 26 27 28 29 30
000
FTUS41 KRLX 040905 CCA
TAFHTS
TAF COR
KHTS 040905Z 0409/0506 34003KT 2SM BR BKN003
     FM041300 VRB03KT P6SM BKN015
     FM041700 VRB03KT P6SM BKN030
     FM042100 30004KT P6SM SCT040
     FM050300 00000KT 6SM BR SCT045
     FM050500 00000KT 5SM BR SCT200=

USA.gov is the U.S. government's official web portal to all federal, state and local government web resources and services.